ZBAA/PEK METAR and TAF weather

Enter ICAO airport designator
Station Type Date Time Source
ZBAA METAR 2024/06/16 08:30 UTC NOAA

ZBAA 160830Z 21007MPS CAVOK 35/09 Q1003 NOSIG


Station Type Date Time Source
ZBAA Decoded METAR 2024/06/16 08:30 UTC NOAA

Beijing, China (ZBAA) 39-56N 116-17E 55M
Jun 16, 2024 - 04:30 AM EDT / 2024.06.16 0830 UTC
Wind: from the SSW (210 degrees) at 16 MPH (14 KT):0
Visibility: greater than 7 mile(s):0
Temperature: 95 F (35 C)
Dew Point: 48 F (9 C)
Relative Humidity: 20%
Pressure (altimeter): 29.62 in. Hg (1003 hPa)
ob: ZBAA 160830Z 21007MPS CAVOK 35/09 Q1003 NOSIG
cycle: 8

Station Type Date Time Source
ZBAA TAF 2024/06/16 06:03 UTC NOAA